createdAt,value
2022-11-02T00:01:21.820Z,1.63
2022-11-02T00:06:23.382Z,2.50
2022-11-02T00:11:24.774Z,2.28
2022-11-02T00:16:26.448Z,1.85
2022-11-02T00:21:28.056Z,1.50
2022-11-02T00:26:29.512Z,1.48
2022-11-02T00:31:30.986Z,1.77
2022-11-02T00:36:33.561Z,1.40
2022-11-02T00:41:34.911Z,1.70
2022-11-02T00:46:36.306Z,1.90
2022-11-02T00:51:38.275Z,1.85
2022-11-02T00:56:39.638Z,1.15
2022-11-02T01:01:41.189Z,1.15
2022-11-02T01:06:42.929Z,1.27
2022-11-02T01:11:44.390Z,1.70
2022-11-02T01:21:52.224Z,1.25
2022-11-02T01:26:53.630Z,1.38
2022-11-02T01:31:55.011Z,1.40
2022-11-02T01:36:56.375Z,1.60
2022-11-02T01:41:57.761Z,1.50
2022-11-02T01:47:01.603Z,1.10
2022-11-02T01:52:08.016Z,1.38
2022-11-02T01:57:10.574Z,1.38
2022-11-02T02:02:17.514Z,1.20
2022-11-02T02:07:19.350Z,1.50
2022-11-02T02:12:21.179Z,1.17
2022-11-02T02:17:27.071Z,1.10
2022-11-02T02:22:28.400Z,1.60
2022-11-02T02:27:48.257Z,1.35
2022-11-02T02:32:52.870Z,1.05
2022-11-02T02:37:58.515Z,1.10
2022-11-02T02:43:10.381Z,1.10
2022-11-02T02:48:14.700Z,1.30
2022-11-02T02:53:19.733Z,1.40
2022-11-02T02:58:29.904Z,1.80
2022-11-02T03:03:32.557Z,1.75
2022-11-02T03:08:35.635Z,1.95
2022-11-02T03:13:49.193Z,1.90
2022-11-02T03:18:57.182Z,1.92
2022-11-02T03:24:01.101Z,1.55
2022-11-02T03:29:10.642Z,1.67
2022-11-02T03:34:20.047Z,1.65
2022-11-02T03:39:26.963Z,1.70
2022-11-02T03:44:29.208Z,1.67
2022-11-02T03:49:31.155Z,1.55
2022-11-02T03:54:51.184Z,2.20
2022-11-02T03:59:52.502Z,1.92
2022-11-02T04:04:53.927Z,1.58
2022-11-02T04:09:55.246Z,1.55
2022-11-02T04:14:56.719Z,1.58
2022-11-02T04:19:58.065Z,1.80
2022-11-02T04:25:18.058Z,1.83
2022-11-02T04:30:21.007Z,2.00
2022-11-02T04:35:22.418Z,1.83
2022-11-02T04:40:23.895Z,1.58
2022-11-02T04:45:26.380Z,1.70
2022-11-02T04:50:27.756Z,2.35
2022-11-02T04:55:29.462Z,2.08
2022-11-02T05:00:30.878Z,2.08
2022-11-02T05:05:32.206Z,2.50
2022-11-02T05:10:33.787Z,1.90
2022-11-02T05:15:35.187Z,2.65
2022-11-02T05:20:36.573Z,2.03
2022-11-02T05:25:37.910Z,2.03
2022-11-02T05:30:39.317Z,2.22
2022-11-02T05:35:40.864Z,2.67
2022-11-02T05:40:42.272Z,2.33
2022-11-02T05:45:43.622Z,2.08
2022-11-02T05:50:44.970Z,2.35
2022-11-02T05:55:46.329Z,2.38
2022-11-02T06:00:47.728Z,1.90
2022-11-02T06:05:55.532Z,1.75
2022-11-02T06:10:56.999Z,1.35
2022-11-02T06:16:01.802Z,1.80
2022-11-02T06:21:03.337Z,2.20
2022-11-02T06:26:04.964Z,2.08
2022-11-02T06:31:06.364Z,2.65
2022-11-02T06:36:07.939Z,1.52
2022-11-02T06:41:10.568Z,1.83
2022-11-02T06:46:11.979Z,1.90
2022-11-02T06:51:14.846Z,1.67
2022-11-02T06:56:16.585Z,1.70
2022-11-02T07:01:18.202Z,1.48
2022-11-02T07:06:19.843Z,1.95
2022-11-02T07:11:21.551Z,1.50
2022-11-02T07:16:22.924Z,1.88
2022-11-02T07:21:24.269Z,1.73
2022-11-02T07:26:26.591Z,1.88
2022-11-02T07:31:28.094Z,2.22
2022-11-02T07:36:29.605Z,1.70
2022-11-02T07:41:31.562Z,2.05
2022-11-02T07:46:33.330Z,2.15
2022-11-02T07:51:34.916Z,2.08
2022-11-02T07:56:36.527Z,1.80
2022-11-02T08:01:37.992Z,1.92
2022-11-02T08:06:39.429Z,2.08
2022-11-02T08:11:40.874Z,1.85
2022-11-02T08:16:42.262Z,1.80
2022-11-02T08:21:43.707Z,1.95
2022-11-02T08:26:46.008Z,1.90
2022-11-02T08:31:48.940Z,2.00
2022-11-02T08:36:50.252Z,1.70
2022-11-02T08:41:52.046Z,2.08
2022-11-02T08:52:00.997Z,2.15
2022-11-02T08:57:02.540Z,2.47
2022-11-02T09:02:04.196Z,1.90
2022-11-02T09:07:05.789Z,2.42
2022-11-02T09:12:07.297Z,2.00
2022-11-02T09:17:10.661Z,1.80
2022-11-02T09:22:30.170Z,1.75
2022-11-02T09:27:33.033Z,2.05
2022-11-02T09:32:34.636Z,1.60
2022-11-02T09:37:36.415Z,2.10
2022-11-02T09:43:04.442Z,1.65
2022-11-02T09:48:20.973Z,1.83
2022-11-02T09:53:30.433Z,1.50
2022-11-02T09:58:37.272Z,1.50
2022-11-02T10:03:50.777Z,1.85
2022-11-02T10:08:52.161Z,1.90
2022-11-02T10:13:56.998Z,1.60
2022-11-02T10:18:58.721Z,2.00
2022-11-02T10:24:22.184Z,1.60
2022-11-02T10:29:43.877Z,1.30
2022-11-02T10:34:54.052Z,1.42
2022-11-02T10:40:11.819Z,2.05
2022-11-02T10:45:31.853Z,1.58
2022-11-02T10:55:45.739Z,2.03
2022-11-02T11:00:51.487Z,1.80
2022-11-02T11:05:52.881Z,1.98
2022-11-02T11:10:54.437Z,1.60
2022-11-02T11:15:55.827Z,1.60
2022-11-02T11:20:57.285Z,1.88
2022-11-02T11:25:59.861Z,1.90
2022-11-02T11:31:03.076Z,1.77
2022-11-02T11:36:06.203Z,2.20
2022-11-02T11:41:11.937Z,1.92
2022-11-02T11:46:14.021Z,2.22
2022-11-02T11:51:26.722Z,1.80
2022-11-02T11:56:28.607Z,1.95
2022-11-02T12:01:38.611Z,2.10
2022-11-02T12:06:43.092Z,1.60
2022-11-02T12:11:44.487Z,1.88
2022-11-02T12:16:54.808Z,1.85
2022-11-02T12:22:09.511Z,1.80
2022-11-02T12:27:19.196Z,1.83
2022-11-02T12:37:41.231Z,2.47
2022-11-02T12:42:53.617Z,1.52
2022-11-02T12:48:03.290Z,2.15
2022-11-02T12:53:23.488Z,1.90
2022-11-02T12:58:27.248Z,1.85
2022-11-02T13:03:29.147Z,2.08
2022-11-02T13:08:37.564Z,1.73
2022-11-02T13:13:51.192Z,1.67
2022-11-02T13:18:53.905Z,2.20
2022-11-02T13:23:56.900Z,1.98
2022-11-02T13:29:03.101Z,1.75
2022-11-02T13:34:11.357Z,2.00
2022-11-02T13:39:26.755Z,1.92
2022-11-02T13:45:03.667Z,1.80
2022-11-02T13:50:08.596Z,2.05
2022-11-02T13:55:16.035Z,2.10
2022-11-02T14:00:23.514Z,3.10
2022-11-02T14:05:32.157Z,2.63
2022-11-02T14:10:36.439Z,2.85
2022-11-02T14:15:38.695Z,3.05
2022-11-02T14:20:41.448Z,2.70
2022-11-02T14:25:46.004Z,2.20
2022-11-02T14:30:49.069Z,2.50
2022-11-02T14:35:56.456Z,2.00
2022-11-02T14:41:00.687Z,2.17
2022-11-02T14:46:20.338Z,2.45
2022-11-02T14:51:47.861Z,2.28
2022-11-02T14:56:54.395Z,2.08
2022-11-02T15:01:57.667Z,2.58
2022-11-02T15:07:01.116Z,2.28
2022-11-02T15:12:20.663Z,2.63
2022-11-02T15:17:22.418Z,2.75
2022-11-02T15:22:36.510Z,3.72
2022-11-02T15:27:39.524Z,2.65
2022-11-02T15:32:44.300Z,2.17
2022-11-02T15:38:11.441Z,2.58
2022-11-02T15:43:36.884Z,2.03
2022-11-02T15:48:48.637Z,2.90
2022-11-02T15:53:52.741Z,3.10
2022-11-02T15:58:54.183Z,2.63
2022-11-02T16:04:00.635Z,2.00
2022-11-02T16:09:02.437Z,2.05
2022-11-02T16:14:17.193Z,2.97
2022-11-02T16:19:19.603Z,2.40
2022-11-02T16:24:21.516Z,2.30
2022-11-02T16:29:29.819Z,3.08
2022-11-02T16:34:31.883Z,2.60
2022-11-02T16:39:37.541Z,2.83
2022-11-02T16:44:39.351Z,2.55
2022-11-02T16:49:49.612Z,2.47
2022-11-02T16:54:50.992Z,2.60
2022-11-02T16:59:59.331Z,2.97
2022-11-02T17:05:05.782Z,2.50
2022-11-02T17:10:10.822Z,2.90
2022-11-02T17:15:16.083Z,2.88
2022-11-02T17:20:21.633Z,2.70
2022-11-02T17:25:25.030Z,2.55
2022-11-02T17:30:35.315Z,3.15
2022-11-02T17:35:36.826Z,2.72
2022-11-02T17:40:38.503Z,2.40
2022-11-02T17:45:39.933Z,2.00
2022-11-02T17:50:41.413Z,2.20
2022-11-02T17:55:42.846Z,2.50
2022-11-02T18:00:44.789Z,2.88
2022-11-02T18:05:50.041Z,2.30
2022-11-02T18:10:53.232Z,2.35
2022-11-02T18:15:54.643Z,2.10
2022-11-02T18:20:56.583Z,1.98
2022-11-02T18:25:59.362Z,2.72
2022-11-02T18:31:01.029Z,2.17
2022-11-02T18:36:03.751Z,2.17
2022-11-02T18:41:27.602Z,2.85
2022-11-02T18:46:30.667Z,2.58
2022-11-02T18:51:32.724Z,2.50
2022-11-02T18:56:34.105Z,2.00
2022-11-02T19:01:35.920Z,2.38
2022-11-02T19:06:55.862Z,2.00
2022-11-02T19:12:01.561Z,2.40
2022-11-02T19:17:03.591Z,2.53
2022-11-02T19:22:05.286Z,2.33
2022-11-02T19:27:06.864Z,2.25
2022-11-02T19:32:08.661Z,2.20
2022-11-02T19:37:15.198Z,2.22
2022-11-02T19:42:19.865Z,2.67
2022-11-02T19:47:22.013Z,2.80
2022-11-02T19:52:23.884Z,2.15
2022-11-02T19:57:29.281Z,2.10
2022-11-02T20:02:33.562Z,2.40
2022-11-02T20:07:34.958Z,2.25
2022-11-02T20:12:36.662Z,2.58
2022-11-02T20:17:52.121Z,3.17
2022-11-02T20:22:59.440Z,2.28
2022-11-02T20:28:00.811Z,2.75
2022-11-02T20:33:02.128Z,2.28
2022-11-02T20:38:03.849Z,2.45
2022-11-02T20:43:07.031Z,2.38
2022-11-02T20:48:08.724Z,2.58
2022-11-02T20:53:10.325Z,2.35
2022-11-02T20:58:12.599Z,3.00
2022-11-02T21:03:14.777Z,2.40
2022-11-02T21:08:17.955Z,2.50
2022-11-02T21:13:37.878Z,3.30
2022-11-02T21:18:39.556Z,2.55
2022-11-02T21:23:40.993Z,2.67
2022-11-02T21:28:44.616Z,2.63
2022-11-02T21:33:46.683Z,2.40
2022-11-02T21:38:50.770Z,2.80
2022-11-02T21:43:54.545Z,2.00
2022-11-02T21:48:55.925Z,2.20
2022-11-02T21:53:57.441Z,2.42
2022-11-02T21:58:58.867Z,3.08
2022-11-02T22:04:00.699Z,2.42
2022-11-02T22:09:02.156Z,2.83
2022-11-02T22:14:03.747Z,3.55
2022-11-02T22:19:06.110Z,2.33
2022-11-02T22:24:07.730Z,2.50
2022-11-02T22:29:09.292Z,2.35
2022-11-02T22:34:11.786Z,2.47
2022-11-02T22:39:14.009Z,2.60
2022-11-02T22:44:16.241Z,2.50
2022-11-02T22:49:18.633Z,2.65
2022-11-02T22:54:20.327Z,2.40
2022-11-02T22:59:21.657Z,1.98
2022-11-02T23:04:22.982Z,2.58
2022-11-02T23:09:24.330Z,2.47
2022-11-02T23:14:25.684Z,2.50
2022-11-02T23:19:29.826Z,2.45
2022-11-02T23:24:49.955Z,2.53
2022-11-02T23:30:10.060Z,2.70
2022-11-02T23:40:31.774Z,2.63
2022-11-02T23:45:33.544Z,2.85
2022-11-02T23:50:54.137Z,2.70
2022-11-02T23:56:14.606Z,3.17
